This is the latest recevied weather packets stored in our database for station/object DJ5CM-10. If no packets are shown the sender has not sent any weather packets the latest 10 day(s).
| Time | Temp. | Humidity | Pressure | Rain* | Wind** | Luminosity | Snow |
|---|---|---|---|---|---|---|---|
| 1777576979 | 17.78° C | 34% | 1028.5 hPa | - | - | - | - |
| 1777576079 | 18.33° C | 33% | 1028.4 hPa | - | - | - | - |
| 1777575179 | 18.89° C | 31% | 1028.3 hPa | - | - | - | - |
| 1777574278 | 20° C | 30% | 1028.1 hPa | - | - | - | - |
| 1777573378 | 20.56° C | 29% | 1028 hPa | - | - | - | - |
| 1777572478 | 21.11° C | 27% | 1027.9 hPa | - | - | - | - |
| 1777571578 | 22.22° C | 26% | 1028 hPa | - | - | - | - |
| 1777570678 | 22.78° C | 24% | 1028 hPa | - | - | - | - |
| 1777569778 | 23.89° C | 23% | 1028 hPa | - | - | - | - |
| 1777568878 | 25° C | 22% | 1028 hPa | - | - | - | - |
| 1777567978 | 26.11° C | 21% | 1028.1 hPa | - | - | - | - |
| 1777567078 | 27.22° C | 20% | 1028.2 hPa | - | - | - | - |
| 1777566178 | 28.33° C | 19% | 1028.3 hPa | - | - | - | - |
| 1777565277 | 30° C | 17% | 1028.4 hPa | - | - | - | - |
| 1777564377 | 32.22° C | 15% | 1028.5 hPa | - | - | - | - |
| 1777563477 | 35° C | 14% | 1028.6 hPa | - | - | - | - |
| 1777562577 | 37.78° C | 13% | 1028.8 hPa | - | - | - | - |
| 1777561677 | 42.22° C | 13% | 1029 hPa | - | - | - | - |
| 1777560777 | 43.33° C | 14% | 1029.2 hPa | - | - | - | - |
| 1777559877 | 41.67° C | 16% | 1029.3 hPa | - | - | - | - |
| 1777558977 | 40° C | 19% | 1029.5 hPa | - | - | - | - |
| 1777558077 | 35.56° C | 24% | 1029.7 hPa | - | - | - | - |
| 1777557177 | 31.67° C | 28% | 1029.8 hPa | - | - | - | - |
| 1777556276 | 30.56° C | 28% | 1029.9 hPa | - | - | - | - |
| 1777555376 | 30.56° C | 30% | 1030.1 hPa | - | - | - | - |
* Rain since midnight (hover to see other rain measurements)
** Current wind speed in m/s (hover to see current wind gust speed)